sensor_id;sensor_type;location;lat;lon;timestamp;temperature;humidity
75091;DHT22;63674;48.048;8.306;2024-01-11T00:00:06;-6.90;99.90
75091;DHT22;63674;48.048;8.306;2024-01-11T00:02:35;-6.90;99.90
75091;DHT22;63674;48.048;8.306;2024-01-11T00:05:05;-6.80;99.90
75091;DHT22;63674;48.048;8.306;2024-01-11T00:07:35;-6.90;99.90
75091;DHT22;63674;48.048;8.306;2024-01-11T00:10:04;-6.90;99.90
75091;DHT22;63674;48.048;8.306;2024-01-11T00:12:33;-7.00;99.90
75091;DHT22;63674;48.048;8.306;2024-01-11T00:15:03;-7.10;99.90
75091;DHT22;63674;48.048;8.306;2024-01-11T00:17:33;-7.10;99.90
75091;DHT22;63674;48.048;8.306;2024-01-11T00:20:01;-7.10;99.90
75091;DHT22;63674;48.048;8.306;2024-01-11T00:22:30;-7.00;99.90
75091;DHT22;63674;48.048;8.306;2024-01-11T00:24:59;-7.10;99.90
75091;DHT22;63674;48.048;8.306;2024-01-11T00:27:27;-7.20;99.90
75091;DHT22;63674;48.048;8.306;2024-01-11T00:29:56;-7.20;99.90
75091;DHT22;63674;48.048;8.306;2024-01-11T00:32:26;-7.20;99.90
75091;DHT22;63674;48.048;8.306;2024-01-11T00:34:54;-7.10;99.90
75091;DHT22;63674;48.048;8.306;2024-01-11T00:37:23;-7.10;99.90
75091;DHT22;63674;48.048;8.306;2024-01-11T00:39:52;-7.20;99.90
75091;DHT22;63674;48.048;8.306;2024-01-11T00:42:21;-7.10;99.90
75091;DHT22;63674;48.048;8.306;2024-01-11T00:44:49;-7.20;99.90
75091;DHT22;63674;48.048;8.306;2024-01-11T00:47:18;-7.20;99.90
75091;DHT22;63674;48.048;8.306;2024-01-11T00:49:48;-7.20;99.90
75091;DHT22;63674;48.048;8.306;2024-01-11T00:52:17;-7.10;99.90
75091;DHT22;63674;48.048;8.306;2024-01-11T00:54:45;-7.10;99.90
75091;DHT22;63674;48.048;8.306;2024-01-11T00:57:14;-7.10;99.90
75091;DHT22;63674;48.048;8.306;2024-01-11T00:59:45;-7.10;99.90
75091;DHT22;63674;48.048;8.306;2024-01-11T01:02:13;-7.10;99.90
75091;DHT22;63674;48.048;8.306;2024-01-11T01:04:41;-7.20;99.90
75091;DHT22;63674;48.048;8.306;2024-01-11T01:07:11;-7.30;99.90
75091;DHT22;63674;48.048;8.306;2024-01-11T01:09:40;-7.30;99.90
75091;DHT22;63674;48.048;8.306;2024-01-11T01:12:09;-7.30;99.90
75091;DHT22;63674;48.048;8.306;2024-01-11T01:14:37;-7.30;99.90
75091;DHT22;63674;48.048;8.306;2024-01-11T01:17:06;-7.30;99.90
75091;DHT22;63674;48.048;8.306;2024-01-11T01:19:34;-7.40;99.90
75091;DHT22;63674;48.048;8.306;2024-01-11T01:22:03;-7.40;99.90
75091;DHT22;63674;48.048;8.306;2024-01-11T01:24:33;-7.50;99.90
75091;DHT22;63674;48.048;8.306;2024-01-11T01:27:02;-7.50;99.90
75091;DHT22;63674;48.048;8.306;2024-01-11T01:29:31;-7.40;99.90
75091;DHT22;63674;48.048;8.306;2024-01-11T01:31:59;-7.40;99.90
75091;DHT22;63674;48.048;8.306;2024-01-11T01:34:28;-7.40;99.90
75091;DHT22;63674;48.048;8.306;2024-01-11T01:36:57;-7.40;99.90
75091;DHT22;63674;48.048;8.306;2024-01-11T01:39:25;-7.40;99.90
75091;DHT22;63674;48.048;8.306;2024-01-11T01:41:55;-7.40;99.90
75091;DHT22;63674;48.048;8.306;2024-01-11T01:44:24;-7.40;99.90
75091;DHT22;63674;48.048;8.306;2024-01-11T01:46:52;-7.30;99.90
75091;DHT22;63674;48.048;8.306;2024-01-11T01:49:21;-7.40;99.90
75091;DHT22;63674;48.048;8.306;2024-01-11T01:51:51;-7.30;99.90
75091;DHT22;63674;48.048;8.306;2024-01-11T01:54:23;-7.40;99.90
75091;DHT22;63674;48.048;8.306;2024-01-11T01:56:54;-7.30;99.90
75091;DHT22;63674;48.048;8.306;2024-01-11T01:59:24;-7.30;99.90
75091;DHT22;63674;48.048;8.306;2024-01-11T02:01:54;-7.30;99.90
75091;DHT22;63674;48.048;8.306;2024-01-11T02:04:23;-7.30;99.90
75091;DHT22;63674;48.048;8.306;2024-01-11T02:06:53;-7.30;99.90
75091;DHT22;63674;48.048;8.306;2024-01-11T02:09:22;-7.40;99.90
75091;DHT22;63674;48.048;8.306;2024-01-11T02:11:52;-7.50;99.90
75091;DHT22;63674;48.048;8.306;2024-01-11T02:14:22;-7.60;99.90
75091;DHT22;63674;48.048;8.306;2024-01-11T02:16:51;-7.60;99.90
75091;DHT22;63674;48.048;8.306;2024-01-11T02:19:20;-7.50;99.90
75091;DHT22;63674;48.048;8.306;2024-01-11T02:21:51;-7.60;99.90
75091;DHT22;63674;48.048;8.306;2024-01-11T02:24:23;-7.60;99.90
75091;DHT22;63674;48.048;8.306;2024-01-11T02:26:58;-7.60;99.90
75091;DHT22;63674;48.048;8.306;2024-01-11T02:29:46;-7.60;99.90
75091;DHT22;63674;48.048;8.306;2024-01-11T02:32:33;-7.50;99.90
75091;DHT22;63674;48.048;8.306;2024-01-11T02:35:21;-7.60;99.90
75091;DHT22;63674;48.048;8.306;2024-01-11T02:38:08;-7.60;99.90
75091;DHT22;63674;48.048;8.306;2024-01-11T02:40:57;-7.60;99.90
75091;DHT22;63674;48.048;8.306;2024-01-11T02:43:46;-7.60;99.90
75091;DHT22;63674;48.048;8.306;2024-01-11T02:46:35;-7.70;99.90
75091;DHT22;63674;48.048;8.306;2024-01-11T02:49:22;-7.60;99.90
75091;DHT22;63674;48.048;8.306;2024-01-11T02:52:09;-7.60;99.90
75091;DHT22;63674;48.048;8.306;2024-01-11T02:54:56;-7.60;99.90
75091;DHT22;63674;48.048;8.306;2024-01-11T02:57:45;-7.60;99.90
75091;DHT22;63674;48.048;8.306;2024-01-11T03:00:32;-7.60;99.90
75091;DHT22;63674;48.048;8.306;2024-01-11T03:03:19;-7.60;99.90
75091;DHT22;63674;48.048;8.306;2024-01-11T03:06:06;-7.80;99.90
75091;DHT22;63674;48.048;8.306;2024-01-11T03:08:53;-7.80;99.90
75091;DHT22;63674;48.048;8.306;2024-01-11T03:11:40;-7.80;99.90
75091;DHT22;63674;48.048;8.306;2024-01-11T03:14:28;-7.80;99.90
75091;DHT22;63674;48.048;8.306;2024-01-11T03:17:15;-7.80;99.90
75091;DHT22;63674;48.048;8.306;2024-01-11T03:20:04;-7.80;99.90
75091;DHT22;63674;48.048;8.306;2024-01-11T03:22:52;-7.90;99.90
75091;DHT22;63674;48.048;8.306;2024-01-11T03:25:39;-7.90;99.90
75091;DHT22;63674;48.048;8.306;2024-01-11T03:28:26;-7.90;99.90
75091;DHT22;63674;48.048;8.306;2024-01-11T03:31:15;-7.90;99.90
75091;DHT22;63674;48.048;8.306;2024-01-11T03:34:02;-7.90;99.90
75091;DHT22;63674;48.048;8.306;2024-01-11T03:36:49;-8.00;99.90
75091;DHT22;63674;48.048;8.306;2024-01-11T03:39:37;-7.90;99.90
75091;DHT22;63674;48.048;8.306;2024-01-11T03:42:05;-7.90;99.90
75091;DHT22;63674;48.048;8.306;2024-01-11T03:44:36;-7.90;99.90
75091;DHT22;63674;48.048;8.306;2024-01-11T03:47:06;-7.90;99.90
75091;DHT22;63674;48.048;8.306;2024-01-11T03:52:05;-7.90;99.90
75091;DHT22;63674;48.048;8.306;2024-01-11T03:54:33;-7.90;99.90
75091;DHT22;63674;48.048;8.306;2024-01-11T03:57:02;-8.00;99.90
75091;DHT22;63674;48.048;8.306;2024-01-11T03:59:31;-8.00;99.90
75091;DHT22;63674;48.048;8.306;2024-01-11T04:02:00;-8.00;99.90
75091;DHT22;63674;48.048;8.306;2024-01-11T04:04:30;-8.10;99.90
75091;DHT22;63674;48.048;8.306;2024-01-11T04:06:58;-8.10;99.90
75091;DHT22;63674;48.048;8.306;2024-01-11T04:09:27;-8.00;99.90
75091;DHT22;63674;48.048;8.306;2024-01-11T04:14:24;-8.00;99.90
75091;DHT22;63674;48.048;8.306;2024-01-11T04:16:53;-8.00;99.90
75091;DHT22;63674;48.048;8.306;2024-01-11T04:19:21;-8.00;99.90
75091;DHT22;63674;48.048;8.306;2024-01-11T04:21:53;-8.00;99.90
75091;DHT22;63674;48.048;8.306;2024-01-11T04:24:22;-8.10;99.90
75091;DHT22;63674;48.048;8.306;2024-01-11T04:26:51;-8.10;99.90
75091;DHT22;63674;48.048;8.306;2024-01-11T04:29:19;-8.10;99.90
75091;DHT22;63674;48.048;8.306;2024-01-11T04:31:48;-8.10;99.90
75091;DHT22;63674;48.048;8.306;2024-01-11T04:34:16;-8.20;99.90
75091;DHT22;63674;48.048;8.306;2024-01-11T04:36:45;-8.20;99.90
75091;DHT22;63674;48.048;8.306;2024-01-11T04:39:15;-8.20;99.90
75091;DHT22;63674;48.048;8.306;2024-01-11T04:41:44;-8.30;99.90
75091;DHT22;63674;48.048;8.306;2024-01-11T04:44:13;-8.40;99.90
75091;DHT22;63674;48.048;8.306;2024-01-11T04:46:43;-8.40;99.90
75091;DHT22;63674;48.048;8.306;2024-01-11T04:49:12;-8.50;99.90
75091;DHT22;63674;48.048;8.306;2024-01-11T04:51:41;-8.40;99.90
75091;DHT22;63674;48.048;8.306;2024-01-11T04:54:09;-8.40;99.90
75091;DHT22;63674;48.048;8.306;2024-01-11T04:56:40;-8.30;99.90
75091;DHT22;63674;48.048;8.306;2024-01-11T04:59:08;-8.30;99.90
75091;DHT22;63674;48.048;8.306;2024-01-11T05:01:37;-8.20;99.90
75091;DHT22;63674;48.048;8.306;2024-01-11T05:04:07;-8.20;99.90
75091;DHT22;63674;48.048;8.306;2024-01-11T05:06:35;-8.20;99.90
75091;DHT22;63674;48.048;8.306;2024-01-11T05:09:04;-8.20;99.90
75091;DHT22;63674;48.048;8.306;2024-01-11T05:11:33;-8.20;99.90
75091;DHT22;63674;48.048;8.306;2024-01-11T05:14:03;-8.30;99.90
75091;DHT22;63674;48.048;8.306;2024-01-11T05:16:31;-8.30;99.90
75091;DHT22;63674;48.048;8.306;2024-01-11T05:21:31;-8.30;99.90
75091;DHT22;63674;48.048;8.306;2024-01-11T05:23:59;-8.20;99.90
75091;DHT22;63674;48.048;8.306;2024-01-11T05:26:28;-8.20;99.90
75091;DHT22;63674;48.048;8.306;2024-01-11T05:28:55;-8.20;99.90
75091;DHT22;63674;48.048;8.306;2024-01-11T05:31:25;-8.30;99.90
75091;DHT22;63674;48.048;8.306;2024-01-11T05:33:54;-8.20;99.90
75091;DHT22;63674;48.048;8.306;2024-01-11T05:36:23;-8.20;99.90
75091;DHT22;63674;48.048;8.306;2024-01-11T05:38:51;-8.20;99.90
75091;DHT22;63674;48.048;8.306;2024-01-11T05:41:20;-8.30;99.90
75091;DHT22;63674;48.048;8.306;2024-01-11T05:43:48;-8.40;99.90
75091;DHT22;63674;48.048;8.306;2024-01-11T05:46:17;-8.40;99.90
75091;DHT22;63674;48.048;8.306;2024-01-11T05:48:47;-8.40;99.90
75091;DHT22;63674;48.048;8.306;2024-01-11T05:51:16;-8.30;99.90
75091;DHT22;63674;48.048;8.306;2024-01-11T05:53:44;-8.30;99.90
75091;DHT22;63674;48.048;8.306;2024-01-11T05:56:13;-8.30;99.90
75091;DHT22;63674;48.048;8.306;2024-01-11T05:58:44;-8.40;99.90
75091;DHT22;63674;48.048;8.306;2024-01-11T06:01:12;-8.40;99.90
75091;DHT22;63674;48.048;8.306;2024-01-11T06:03:41;-8.40;99.90
75091;DHT22;63674;48.048;8.306;2024-01-11T06:06:11;-8.40;99.90
75091;DHT22;63674;48.048;8.306;2024-01-11T06:08:40;-8.40;99.90
75091;DHT22;63674;48.048;8.306;2024-01-11T06:11:10;-8.40;99.90
75091;DHT22;63674;48.048;8.306;2024-01-11T06:13:40;-8.50;99.90
75091;DHT22;63674;48.048;8.306;2024-01-11T06:16:09;-8.50;99.90
75091;DHT22;63674;48.048;8.306;2024-01-11T06:18:39;-8.50;99.90
75091;DHT22;63674;48.048;8.306;2024-01-11T06:21:08;-8.50;99.90
75091;DHT22;63674;48.048;8.306;2024-01-11T06:23:38;-8.40;99.90
75091;DHT22;63674;48.048;8.306;2024-01-11T06:26:07;-8.40;99.90
75091;DHT22;63674;48.048;8.306;2024-01-11T06:28:36;-8.40;99.90
75091;DHT22;63674;48.048;8.306;2024-01-11T06:31:05;-8.40;99.90
75091;DHT22;63674;48.048;8.306;2024-01-11T06:33:34;-8.40;99.90
75091;DHT22;63674;48.048;8.306;2024-01-11T06:36:06;-8.50;99.90
75091;DHT22;63674;48.048;8.306;2024-01-11T06:38:35;-8.40;99.90
75091;DHT22;63674;48.048;8.306;2024-01-11T06:41:05;-8.40;99.90
75091;DHT22;63674;48.048;8.306;2024-01-11T06:43:34;-8.40;99.90
75091;DHT22;63674;48.048;8.306;2024-01-11T06:46:04;-8.40;99.90
75091;DHT22;63674;48.048;8.306;2024-01-11T06:48:33;-8.40;99.90
75091;DHT22;63674;48.048;8.306;2024-01-11T06:51:02;-8.40;99.90
75091;DHT22;63674;48.048;8.306;2024-01-11T06:53:30;-8.40;99.90
75091;DHT22;63674;48.048;8.306;2024-01-11T06:55:59;-8.40;99.90
75091;DHT22;63674;48.048;8.306;2024-01-11T06:58:29;-8.50;99.90
75091;DHT22;63674;48.048;8.306;2024-01-11T07:00:57;-8.50;99.90
75091;DHT22;63674;48.048;8.306;2024-01-11T07:03:26;-8.50;99.90
75091;DHT22;63674;48.048;8.306;2024-01-11T07:05:56;-8.50;99.90
75091;DHT22;63674;48.048;8.306;2024-01-11T07:08:24;-8.50;99.90
75091;DHT22;63674;48.048;8.306;2024-01-11T07:10:53;-8.50;99.90
75091;DHT22;63674;48.048;8.306;2024-01-11T07:13:21;-8.50;99.90
75091;DHT22;63674;48.048;8.306;2024-01-11T07:15:51;-8.50;99.90
75091;DHT22;63674;48.048;8.306;2024-01-11T07:18:20;-8.60;99.90
75091;DHT22;63674;48.048;8.306;2024-01-11T07:20:49;-8.60;99.90
75091;DHT22;63674;48.048;8.306;2024-01-11T07:23:18;-8.50;99.90
75091;DHT22;63674;48.048;8.306;2024-01-11T07:25:47;-8.50;99.90
75091;DHT22;63674;48.048;8.306;2024-01-11T07:28:16;-8.50;99.90
75091;DHT22;63674;48.048;8.306;2024-01-11T07:30:46;-8.40;99.90
75091;DHT22;63674;48.048;8.306;2024-01-11T07:33:16;-8.40;99.90
75091;DHT22;63674;48.048;8.306;2024-01-11T07:35:45;-8.40;99.90
75091;DHT22;63674;48.048;8.306;2024-01-11T07:40:43;-8.60;99.90
75091;DHT22;63674;48.048;8.306;2024-01-11T07:43:11;-8.60;99.90
75091;DHT22;63674;48.048;8.306;2024-01-11T07:45:41;-8.50;99.90
75091;DHT22;63674;48.048;8.306;2024-01-11T07:48:09;-8.50;99.90
75091;DHT22;63674;48.048;8.306;2024-01-11T07:50:40;-8.50;99.90
75091;DHT22;63674;48.048;8.306;2024-01-11T07:53:08;-8.40;99.90
75091;DHT22;63674;48.048;8.306;2024-01-11T07:55:39;-8.50;99.90
75091;DHT22;63674;48.048;8.306;2024-01-11T07:58:10;-8.40;99.90
75091;DHT22;63674;48.048;8.306;2024-01-11T08:00:42;-8.40;99.90
75091;DHT22;63674;48.048;8.306;2024-01-11T08:03:12;-8.30;99.90
75091;DHT22;63674;48.048;8.306;2024-01-11T08:05:42;-8.20;99.90
75091;DHT22;63674;48.048;8.306;2024-01-11T08:08:11;-8.20;99.90
75091;DHT22;63674;48.048;8.306;2024-01-11T08:10:40;-8.10;99.90
75091;DHT22;63674;48.048;8.306;2024-01-11T08:13:08;-8.10;99.90
75091;DHT22;63674;48.048;8.306;2024-01-11T08:15:37;-8.00;99.90
75091;DHT22;63674;48.048;8.306;2024-01-11T08:18:06;-8.00;99.90
75091;DHT22;63674;48.048;8.306;2024-01-11T08:20:35;-8.00;99.90
75091;DHT22;63674;48.048;8.306;2024-01-11T08:23:05;-8.00;99.90
75091;DHT22;63674;48.048;8.306;2024-01-11T08:25:33;-8.00;99.90
75091;DHT22;63674;48.048;8.306;2024-01-11T08:28:03;-8.20;99.90
75091;DHT22;63674;48.048;8.306;2024-01-11T08:30:32;-8.20;99.90
75091;DHT22;63674;48.048;8.306;2024-01-11T08:33:01;-8.10;99.90
75091;DHT22;63674;48.048;8.306;2024-01-11T08:35:31;-8.10;99.90
75091;DHT22;63674;48.048;8.306;2024-01-11T08:38:00;-7.90;99.90
75091;DHT22;63674;48.048;8.306;2024-01-11T08:40:31;-7.80;99.90
75091;DHT22;63674;48.048;8.306;2024-01-11T08:42:59;-7.80;99.90
75091;DHT22;63674;48.048;8.306;2024-01-11T08:45:31;-7.70;99.90
75091;DHT22;63674;48.048;8.306;2024-01-11T08:48:00;-7.80;99.90
75091;DHT22;63674;48.048;8.306;2024-01-11T08:50:29;-7.90;99.90
75091;DHT22;63674;48.048;8.306;2024-01-11T08:52:57;-7.90;99.90
75091;DHT22;63674;48.048;8.306;2024-01-11T08:55:27;-7.90;99.90
75091;DHT22;63674;48.048;8.306;2024-01-11T08:57:57;-7.90;99.90
75091;DHT22;63674;48.048;8.306;2024-01-11T09:00:26;-7.80;99.90
75091;DHT22;63674;48.048;8.306;2024-01-11T09:02:55;-7.80;99.90
75091;DHT22;63674;48.048;8.306;2024-01-11T09:05:25;-7.70;99.90
75091;DHT22;63674;48.048;8.306;2024-01-11T09:07:53;-7.50;99.90
75091;DHT22;63674;48.048;8.306;2024-01-11T09:10:22;-7.40;99.90
75091;DHT22;63674;48.048;8.306;2024-01-11T09:12:51;-7.50;99.90
75091;DHT22;63674;48.048;8.306;2024-01-11T09:15:22;-7.50;99.90
75091;DHT22;63674;48.048;8.306;2024-01-11T09:17:51;-7.40;99.90
75091;DHT22;63674;48.048;8.306;2024-01-11T09:20:19;-7.40;99.90
75091;DHT22;63674;48.048;8.306;2024-01-11T09:22:49;-7.30;99.90
75091;DHT22;63674;48.048;8.306;2024-01-11T09:25:18;-7.30;99.90
75091;DHT22;63674;48.048;8.306;2024-01-11T09:27:46;-7.10;99.90
75091;DHT22;63674;48.048;8.306;2024-01-11T09:30:16;-7.00;99.90
75091;DHT22;63674;48.048;8.306;2024-01-11T09:32:47;-6.90;99.90
75091;DHT22;63674;48.048;8.306;2024-01-11T09:35:15;-6.80;99.90
75091;DHT22;63674;48.048;8.306;2024-01-11T09:37:44;-6.70;99.90
75091;DHT22;63674;48.048;8.306;2024-01-11T09:40:14;-6.60;99.90
75091;DHT22;63674;48.048;8.306;2024-01-11T09:42:44;-6.40;99.90
75091;DHT22;63674;48.048;8.306;2024-01-11T09:45:14;-6.40;99.90
75091;DHT22;63674;48.048;8.306;2024-01-11T09:47:44;-6.20;99.90
75091;DHT22;63674;48.048;8.306;2024-01-11T09:50:16;-6.10;99.90
75091;DHT22;63674;48.048;8.306;2024-01-11T09:52:46;-6.00;99.90
75091;DHT22;63674;48.048;8.306;2024-01-11T09:55:19;-5.90;99.90
75091;DHT22;63674;48.048;8.306;2024-01-11T09:57:51;-5.80;99.90
75091;DHT22;63674;48.048;8.306;2024-01-11T10:00:22;-5.70;99.90
75091;DHT22;63674;48.048;8.306;2024-01-11T10:03:12;-5.60;99.90
75091;DHT22;63674;48.048;8.306;2024-01-11T10:05:43;-5.50;99.90
75091;DHT22;63674;48.048;8.306;2024-01-11T10:08:12;-5.30;99.90
75091;DHT22;63674;48.048;8.306;2024-01-11T10:10:41;-5.30;99.90
75091;DHT22;63674;48.048;8.306;2024-01-11T10:13:10;-5.00;99.90
75091;DHT22;63674;48.048;8.306;2024-01-11T10:15:39;-4.80;99.90
75091;DHT22;63674;48.048;8.306;2024-01-11T10:18:07;-4.50;99.90
75091;DHT22;63674;48.048;8.306;2024-01-11T10:20:36;-4.30;99.90
75091;DHT22;63674;48.048;8.306;2024-01-11T10:23:07;-4.10;99.90
75091;DHT22;63674;48.048;8.306;2024-01-11T10:25:36;-4.00;99.90
75091;DHT22;63674;48.048;8.306;2024-01-11T10:28:07;-4.00;99.90
75091;DHT22;63674;48.048;8.306;2024-01-11T10:30:35;-3.80;99.90
75091;DHT22;63674;48.048;8.306;2024-01-11T10:33:07;-3.80;99.90
75091;DHT22;63674;48.048;8.306;2024-01-11T10:35:36;-3.30;99.90
75091;DHT22;63674;48.048;8.306;2024-01-11T10:38:09;-3.30;99.90
75091;DHT22;63674;48.048;8.306;2024-01-11T10:40:38;-3.00;99.90
75091;DHT22;63674;48.048;8.306;2024-01-11T10:43:09;-3.00;99.90
75091;DHT22;63674;48.048;8.306;2024-01-11T10:45:39;-2.90;99.90
75091;DHT22;63674;48.048;8.306;2024-01-11T10:48:14;-2.70;99.90
75091;DHT22;63674;48.048;8.306;2024-01-11T10:50:45;-2.60;99.90
75091;DHT22;63674;48.048;8.306;2024-01-11T10:53:31;-2.50;99.90
75091;DHT22;63674;48.048;8.306;2024-01-11T10:56:09;-2.40;99.90
75091;DHT22;63674;48.048;8.306;2024-01-11T10:58:40;-2.40;99.90
75091;DHT22;63674;48.048;8.306;2024-01-11T11:01:11;-2.40;99.90
75091;DHT22;63674;48.048;8.306;2024-01-11T11:03:40;-2.30;99.90
75091;DHT22;63674;48.048;8.306;2024-01-11T11:06:11;-2.20;99.90
75091;DHT22;63674;48.048;8.306;2024-01-11T11:08:42;-1.90;99.90
75091;DHT22;63674;48.048;8.306;2024-01-11T11:11:11;-1.90;99.90
75091;DHT22;63674;48.048;8.306;2024-01-11T11:13:42;-1.90;99.90
75091;DHT22;63674;48.048;8.306;2024-01-11T11:16:11;-1.60;99.90
75091;DHT22;63674;48.048;8.306;2024-01-11T11:18:40;-1.60;99.90
75091;DHT22;63674;48.048;8.306;2024-01-11T11:21:09;-1.50;99.90
75091;DHT22;63674;48.048;8.306;2024-01-11T11:23:38;-1.40;99.90
75091;DHT22;63674;48.048;8.306;2024-01-11T11:26:14;-1.30;99.90
75091;DHT22;63674;48.048;8.306;2024-01-11T11:28:44;-1.20;99.90
75091;DHT22;63674;48.048;8.306;2024-01-11T11:31:13;-1.00;99.90
75091;DHT22;63674;48.048;8.306;2024-01-11T11:33:41;-0.80;99.90
75091;DHT22;63674;48.048;8.306;2024-01-11T11:36:12;-0.70;99.90
75091;DHT22;63674;48.048;8.306;2024-01-11T11:38:41;-0.70;99.90
75091;DHT22;63674;48.048;8.306;2024-01-11T11:41:12;-0.60;99.90
75091;DHT22;63674;48.048;8.306;2024-01-11T11:46:09;-0.50;99.90
75091;DHT22;63674;48.048;8.306;2024-01-11T11:48:51;-0.40;99.90
75091;DHT22;63674;48.048;8.306;2024-01-11T11:51:22;-0.40;99.90
75091;DHT22;63674;48.048;8.306;2024-01-11T11:53:55;-0.30;99.90
75091;DHT22;63674;48.048;8.306;2024-01-11T11:56:25;-0.30;99.90
75091;DHT22;63674;48.048;8.306;2024-01-11T11:58:54;-0.20;99.90
75091;DHT22;63674;48.048;8.306;2024-01-11T12:01:23;-0.20;99.90
75091;DHT22;63674;48.048;8.306;2024-01-11T12:03:52;0.10;99.90
75091;DHT22;63674;48.048;8.306;2024-01-11T12:06:22;0.20;99.90
75091;DHT22;63674;48.048;8.306;2024-01-11T12:08:53;0.20;99.90
75091;DHT22;63674;48.048;8.306;2024-01-11T12:11:26;0.10;99.90
75091;DHT22;63674;48.048;8.306;2024-01-11T12:13:55;0.20;99.90
75091;DHT22;63674;48.048;8.306;2024-01-11T12:18:57;0.20;99.90
75091;DHT22;63674;48.048;8.306;2024-01-11T12:21:26;0.30;99.90
75091;DHT22;63674;48.048;8.306;2024-01-11T12:26:25;0.40;99.90
75091;DHT22;63674;48.048;8.306;2024-01-11T12:28:54;0.60;99.90
75091;DHT22;63674;48.048;8.306;2024-01-11T12:31:22;0.80;99.90
75091;DHT22;63674;48.048;8.306;2024-01-11T12:33:52;0.90;99.90
75091;DHT22;63674;48.048;8.306;2024-01-11T12:36:22;1.10;99.90
75091;DHT22;63674;48.048;8.306;2024-01-11T12:41:22;1.10;99.90
75091;DHT22;63674;48.048;8.306;2024-01-11T12:43:53;1.20;99.90
75091;DHT22;63674;48.048;8.306;2024-01-11T12:46:22;1.30;99.90
75091;DHT22;63674;48.048;8.306;2024-01-11T12:48:51;1.30;99.90
75091;DHT22;63674;48.048;8.306;2024-01-11T12:51:20;1.40;99.90
75091;DHT22;63674;48.048;8.306;2024-01-11T12:53:52;1.40;99.90
75091;DHT22;63674;48.048;8.306;2024-01-11T12:56:22;1.40;99.90
75091;DHT22;63674;48.048;8.306;2024-01-11T12:59:05;1.50;99.90
75091;DHT22;63674;48.048;8.306;2024-01-11T13:01:34;1.40;99.90
75091;DHT22;63674;48.048;8.306;2024-01-11T13:04:03;1.40;99.90
75091;DHT22;63674;48.048;8.306;2024-01-11T13:06:32;1.30;99.90
75091;DHT22;63674;48.048;8.306;2024-01-11T13:09:01;1.20;99.90
75091;DHT22;63674;48.048;8.306;2024-01-11T13:11:31;1.20;99.90
75091;DHT22;63674;48.048;8.306;2024-01-11T13:14:01;1.20;99.90
75091;DHT22;63674;48.048;8.306;2024-01-11T13:16:33;1.00;99.90
75091;DHT22;63674;48.048;8.306;2024-01-11T13:19:02;1.00;99.90
75091;DHT22;63674;48.048;8.306;2024-01-11T13:24:15;0.80;99.90
75091;DHT22;63674;48.048;8.306;2024-01-11T13:26:43;0.90;99.90
75091;DHT22;63674;48.048;8.306;2024-01-11T13:29:13;1.00;99.90
75091;DHT22;63674;48.048;8.306;2024-01-11T13:31:42;0.90;99.90
75091;DHT22;63674;48.048;8.306;2024-01-11T13:34:10;0.90;99.90
75091;DHT22;63674;48.048;8.306;2024-01-11T13:36:39;0.90;99.90
75091;DHT22;63674;48.048;8.306;2024-01-11T13:39:07;0.90;99.90
75091;DHT22;63674;48.048;8.306;2024-01-11T13:41:36;1.00;99.90
75091;DHT22;63674;48.048;8.306;2024-01-11T13:44:07;1.10;99.90
75091;DHT22;63674;48.048;8.306;2024-01-11T13:46:38;1.20;99.90
75091;DHT22;63674;48.048;8.306;2024-01-11T13:49:06;1.10;99.90
75091;DHT22;63674;48.048;8.306;2024-01-11T13:51:35;1.10;99.90
75091;DHT22;63674;48.048;8.306;2024-01-11T13:54:19;1.00;99.90
75091;DHT22;63674;48.048;8.306;2024-01-11T13:56:49;1.00;99.90
75091;DHT22;63674;48.048;8.306;2024-01-11T13:59:19;1.10;99.90
75091;DHT22;63674;48.048;8.306;2024-01-11T14:01:50;1.00;99.90
75091;DHT22;63674;48.048;8.306;2024-01-11T14:09:20;0.90;99.90
75091;DHT22;63674;48.048;8.306;2024-01-11T14:11:49;0.90;99.90
75091;DHT22;63674;48.048;8.306;2024-01-11T14:16:49;0.90;99.90
75091;DHT22;63674;48.048;8.306;2024-01-11T14:19:19;0.90;99.90
75091;DHT22;63674;48.048;8.306;2024-01-11T14:21:48;0.90;99.90
75091;DHT22;63674;48.048;8.306;2024-01-11T14:26:58;0.90;99.90
75091;DHT22;63674;48.048;8.306;2024-01-11T14:29:27;0.70;99.90
75091;DHT22;63674;48.048;8.306;2024-01-11T14:31:57;0.70;99.90
75091;DHT22;63674;48.048;8.306;2024-01-11T14:34:26;0.80;99.90
75091;DHT22;63674;48.048;8.306;2024-01-11T14:36:55;0.70;99.90
75091;DHT22;63674;48.048;8.306;2024-01-11T14:39:24;0.70;99.90
75091;DHT22;63674;48.048;8.306;2024-01-11T14:41:53;0.70;99.90
75091;DHT22;63674;48.048;8.306;2024-01-11T14:44:21;0.70;99.90
75091;DHT22;63674;48.048;8.306;2024-01-11T14:46:50;0.70;99.90
75091;DHT22;63674;48.048;8.306;2024-01-11T14:49:20;0.70;99.90
75091;DHT22;63674;48.048;8.306;2024-01-11T14:51:49;0.70;99.90
75091;DHT22;63674;48.048;8.306;2024-01-11T14:54:19;0.60;99.90
75091;DHT22;63674;48.048;8.306;2024-01-11T14:56:47;0.60;99.90
75091;DHT22;63674;48.048;8.306;2024-01-11T14:59:16;0.40;99.90
75091;DHT22;63674;48.048;8.306;2024-01-11T15:04:16;0.30;99.90
75091;DHT22;63674;48.048;8.306;2024-01-11T15:06:46;0.30;99.90
75091;DHT22;63674;48.048;8.306;2024-01-11T15:09:15;0.30;99.90
75091;DHT22;63674;48.048;8.306;2024-01-11T15:14:13;0.10;99.90
75091;DHT22;63674;48.048;8.306;2024-01-11T15:16:42;-0.10;99.90
75091;DHT22;63674;48.048;8.306;2024-01-11T15:19:12;0.00;99.90
75091;DHT22;63674;48.048;8.306;2024-01-11T15:24:18;-0.20;99.90
75091;DHT22;63674;48.048;8.306;2024-01-11T15:26:47;-0.30;99.90
75091;DHT22;63674;48.048;8.306;2024-01-11T15:29:16;-0.60;99.90
75091;DHT22;63674;48.048;8.306;2024-01-11T15:31:45;-0.50;99.90
75091;DHT22;63674;48.048;8.306;2024-01-11T15:34:16;-0.60;99.90
75091;DHT22;63674;48.048;8.306;2024-01-11T15:36:46;-0.50;99.90
75091;DHT22;63674;48.048;8.306;2024-01-11T15:41:55;-0.90;99.90
75091;DHT22;63674;48.048;8.306;2024-01-11T15:44:25;-1.10;99.90
75091;DHT22;63674;48.048;8.306;2024-01-11T15:46:56;-0.70;99.90
75091;DHT22;63674;48.048;8.306;2024-01-11T15:51:54;-1.00;99.90
75091;DHT22;63674;48.048;8.306;2024-01-11T15:54:23;-1.10;99.90
75091;DHT22;63674;48.048;8.306;2024-01-11T15:56:51;-1.10;99.90
75091;DHT22;63674;48.048;8.306;2024-01-11T15:59:22;-1.20;99.90
75091;DHT22;63674;48.048;8.306;2024-01-11T16:04:33;-1.40;99.90
75091;DHT22;63674;48.048;8.306;2024-01-11T16:07:02;-1.50;99.90
75091;DHT22;63674;48.048;8.306;2024-01-11T16:09:31;-1.30;99.90
75091;DHT22;63674;48.048;8.306;2024-01-11T16:11:59;-1.40;99.90
75091;DHT22;63674;48.048;8.306;2024-01-11T16:14:33;-2.20;99.90
75091;DHT22;63674;48.048;8.306;2024-01-11T16:17:03;-1.00;99.90
75091;DHT22;63674;48.048;8.306;2024-01-11T16:19:32;-1.50;99.90
75091;DHT22;63674;48.048;8.306;2024-01-11T16:22:01;-1.80;99.90
75091;DHT22;63674;48.048;8.306;2024-01-11T16:26:59;-2.10;99.90
75091;DHT22;63674;48.048;8.306;2024-01-11T16:31:58;-1.70;99.90
75091;DHT22;63674;48.048;8.306;2024-01-11T16:34:27;-1.60;99.90
75091;DHT22;63674;48.048;8.306;2024-01-11T16:36:56;-1.80;99.90
75091;DHT22;63674;48.048;8.306;2024-01-11T16:39:24;-1.80;99.90
75091;DHT22;63674;48.048;8.306;2024-01-11T16:46:51;-2.40;99.90
75091;DHT22;63674;48.048;8.306;2024-01-11T16:49:22;-2.30;99.90
75091;DHT22;63674;48.048;8.306;2024-01-11T16:51:50;-1.60;99.90